sensor_id;sensor_type;location;lat;lon;timestamp;P1;durP1;ratioP1;P2;durP2;ratioP2
17369;SDS011;8802;52.402;4.920;2022-12-04T00:01:17;37.95;;;26.65;;
17369;SDS011;8802;52.402;4.920;2022-12-04T00:03:46;36.70;;;25.83;;
17369;SDS011;8802;52.402;4.920;2022-12-04T00:06:15;35.50;;;24.73;;
17369;SDS011;8802;52.402;4.920;2022-12-04T00:08:43;35.53;;;23.58;;
17369;SDS011;8802;52.402;4.920;2022-12-04T00:11:12;38.33;;;27.55;;
17369;SDS011;8802;52.402;4.920;2022-12-04T00:13:40;33.95;;;25.35;;
17369;SDS011;8802;52.402;4.920;2022-12-04T00:16:08;33.47;;;22.65;;
17369;SDS011;8802;52.402;4.920;2022-12-04T00:18:38;38.13;;;25.77;;
17369;SDS011;8802;52.402;4.920;2022-12-04T00:21:06;35.45;;;23.30;;
17369;SDS011;8802;52.402;4.920;2022-12-04T00:23:36;38.28;;;26.98;;
17369;SDS011;8802;52.402;4.920;2022-12-04T00:26:04;33.50;;;22.23;;
17369;SDS011;8802;52.402;4.920;2022-12-04T00:28:33;31.23;;;20.27;;
17369;SDS011;8802;52.402;4.920;2022-12-04T00:31:03;32.75;;;21.67;;
17369;SDS011;8802;52.402;4.920;2022-12-04T00:33:30;37.85;;;26.02;;
17369;SDS011;8802;52.402;4.920;2022-12-04T00:35:57;34.78;;;22.13;;
17369;SDS011;8802;52.402;4.920;2022-12-04T00:38:25;32.92;;;22.67;;
17369;SDS011;8802;52.402;4.920;2022-12-04T00:40:54;35.15;;;24.10;;
17369;SDS011;8802;52.402;4.920;2022-12-04T00:43:21;34.85;;;24.08;;
17369;SDS011;8802;52.402;4.920;2022-12-04T00:45:49;32.60;;;22.52;;
17369;SDS011;8802;52.402;4.920;2022-12-04T00:48:16;38.33;;;26.52;;
17369;SDS011;8802;52.402;4.920;2022-12-04T00:50:43;34.65;;;24.02;;
17369;SDS011;8802;52.402;4.920;2022-12-04T00:53:10;36.35;;;24.75;;
17369;SDS011;8802;52.402;4.920;2022-12-04T00:55:37;34.53;;;24.80;;
17369;SDS011;8802;52.402;4.920;2022-12-04T00:58:05;37.08;;;25.65;;
17369;SDS011;8802;52.402;4.920;2022-12-04T01:00:32;32.47;;;22.48;;
17369;SDS011;8802;52.402;4.920;2022-12-04T01:02:59;38.55;;;26.65;;
17369;SDS011;8802;52.402;4.920;2022-12-04T01:05:26;38.65;;;27.40;;
17369;SDS011;8802;52.402;4.920;2022-12-04T01:07:53;36.30;;;24.02;;
17369;SDS011;8802;52.402;4.920;2022-12-04T01:10:19;34.53;;;23.50;;
17369;SDS011;8802;52.402;4.920;2022-12-04T01:12:47;34.60;;;23.77;;
17369;SDS011;8802;52.402;4.920;2022-12-04T01:15:16;38.28;;;26.50;;
17369;SDS011;8802;52.402;4.920;2022-12-04T01:17:43;39.53;;;26.25;;
17369;SDS011;8802;52.402;4.920;2022-12-04T01:20:10;34.90;;;25.95;;
17369;SDS011;8802;52.402;4.920;2022-12-04T01:22:38;37.45;;;27.08;;
17369;SDS011;8802;52.402;4.920;2022-12-04T01:25:05;36.92;;;24.88;;
17369;SDS011;8802;52.402;4.920;2022-12-04T01:27:33;38.80;;;26.52;;
17369;SDS011;8802;52.402;4.920;2022-12-04T01:30:00;42.03;;;27.85;;
17369;SDS011;8802;52.402;4.920;2022-12-04T01:32:28;37.10;;;26.88;;
17369;SDS011;8802;52.402;4.920;2022-12-04T01:34:55;33.95;;;23.35;;
17369;SDS011;8802;52.402;4.920;2022-12-04T01:37:22;40.28;;;27.75;;
17369;SDS011;8802;52.402;4.920;2022-12-04T01:39:49;37.80;;;26.13;;
17369;SDS011;8802;52.402;4.920;2022-12-04T01:42:15;33.92;;;25.55;;
17369;SDS011;8802;52.402;4.920;2022-12-04T01:44:43;36.90;;;24.58;;
17369;SDS011;8802;52.402;4.920;2022-12-04T01:47:31;37.17;;;26.73;;
17369;SDS011;8802;52.402;4.920;2022-12-04T01:49:58;37.10;;;26.17;;
17369;SDS011;8802;52.402;4.920;2022-12-04T01:52:25;36.65;;;25.50;;
17369;SDS011;8802;52.402;4.920;2022-12-04T01:54:53;36.05;;;26.38;;
17369;SDS011;8802;52.402;4.920;2022-12-04T01:57:25;31.98;;;21.60;;
17369;SDS011;8802;52.402;4.920;2022-12-04T01:59:54;32.63;;;22.08;;
17369;SDS011;8802;52.402;4.920;2022-12-04T02:02:25;38.17;;;26.85;;
17369;SDS011;8802;52.402;4.920;2022-12-04T02:04:55;35.33;;;24.48;;
17369;SDS011;8802;52.402;4.920;2022-12-04T02:07:22;34.70;;;23.95;;
17369;SDS011;8802;52.402;4.920;2022-12-04T02:09:49;37.10;;;25.95;;
17369;SDS011;8802;52.402;4.920;2022-12-04T02:12:20;31.50;;;22.92;;
17369;SDS011;8802;52.402;4.920;2022-12-04T02:14:57;34.75;;;26.38;;
17369;SDS011;8802;52.402;4.920;2022-12-04T02:17:31;34.08;;;25.15;;
17369;SDS011;8802;52.402;4.920;2022-12-04T02:20:13;32.97;;;25.05;;
17369;SDS011;8802;52.402;4.920;2022-12-04T02:26:04;34.85;;;24.48;;
17369;SDS011;8802;52.402;4.920;2022-12-04T02:28:44;33.05;;;21.33;;
17369;SDS011;8802;52.402;4.920;2022-12-04T02:31:15;32.00;;;23.10;;
17369;SDS011;8802;52.402;4.920;2022-12-04T02:33:45;30.13;;;20.75;;
17369;SDS011;8802;52.402;4.920;2022-12-04T02:36:17;28.85;;;21.02;;
17369;SDS011;8802;52.402;4.920;2022-12-04T02:38:48;34.80;;;24.90;;
17369;SDS011;8802;52.402;4.920;2022-12-04T02:41:19;31.70;;;23.15;;
17369;SDS011;8802;52.402;4.920;2022-12-04T02:43:52;34.00;;;25.33;;
17369;SDS011;8802;52.402;4.920;2022-12-04T02:46:25;34.42;;;24.77;;
17369;SDS011;8802;52.402;4.920;2022-12-04T02:48:57;35.40;;;26.35;;
17369;SDS011;8802;52.402;4.920;2022-12-04T02:51:27;29.20;;;22.88;;
17369;SDS011;8802;52.402;4.920;2022-12-04T02:53:58;32.25;;;25.25;;
17369;SDS011;8802;52.402;4.920;2022-12-04T02:56:31;37.17;;;27.25;;
17369;SDS011;8802;52.402;4.920;2022-12-04T02:59:04;30.50;;;21.83;;
17369;SDS011;8802;52.402;4.920;2022-12-04T03:01:35;35.50;;;25.17;;
17369;SDS011;8802;52.402;4.920;2022-12-04T03:04:06;34.30;;;23.10;;
17369;SDS011;8802;52.402;4.920;2022-12-04T03:06:38;32.53;;;21.73;;
17369;SDS011;8802;52.402;4.920;2022-12-04T03:09:08;37.50;;;26.95;;
17369;SDS011;8802;52.402;4.920;2022-12-04T03:11:39;37.97;;;27.30;;
17369;SDS011;8802;52.402;4.920;2022-12-04T03:14:12;37.33;;;27.42;;
17369;SDS011;8802;52.402;4.920;2022-12-04T03:16:42;36.63;;;25.63;;
17369;SDS011;8802;52.402;4.920;2022-12-04T03:19:11;35.10;;;24.73;;
17369;SDS011;8802;52.402;4.920;2022-12-04T03:21:43;37.40;;;26.23;;
17369;SDS011;8802;52.402;4.920;2022-12-04T03:24:16;35.65;;;25.80;;
17369;SDS011;8802;52.402;4.920;2022-12-04T03:26:49;39.17;;;27.27;;
17369;SDS011;8802;52.402;4.920;2022-12-04T03:29:23;37.47;;;27.88;;
17369;SDS011;8802;52.402;4.920;2022-12-04T03:31:56;30.88;;;21.73;;
17369;SDS011;8802;52.402;4.920;2022-12-04T03:34:30;33.35;;;23.00;;
17369;SDS011;8802;52.402;4.920;2022-12-04T03:37:01;34.50;;;23.65;;
17369;SDS011;8802;52.402;4.920;2022-12-04T03:39:35;33.78;;;23.60;;
17369;SDS011;8802;52.402;4.920;2022-12-04T03:42:08;35.35;;;26.50;;
17369;SDS011;8802;52.402;4.920;2022-12-04T03:44:42;32.47;;;24.63;;
17369;SDS011;8802;52.402;4.920;2022-12-04T03:47:12;33.58;;;21.85;;
17369;SDS011;8802;52.402;4.920;2022-12-04T03:49:43;41.15;;;29.00;;
17369;SDS011;8802;52.402;4.920;2022-12-04T03:52:16;38.30;;;27.20;;
17369;SDS011;8802;52.402;4.920;2022-12-04T03:54:50;37.95;;;27.92;;
17369;SDS011;8802;52.402;4.920;2022-12-04T03:57:20;39.72;;;27.55;;
17369;SDS011;8802;52.402;4.920;2022-12-04T03:59:53;37.80;;;28.30;;
17369;SDS011;8802;52.402;4.920;2022-12-04T04:02:26;38.45;;;26.05;;
17369;SDS011;8802;52.402;4.920;2022-12-04T04:04:58;39.17;;;27.92;;
17369;SDS011;8802;52.402;4.920;2022-12-04T04:07:27;35.15;;;24.08;;
17369;SDS011;8802;52.402;4.920;2022-12-04T04:10:01;36.00;;;26.15;;
17369;SDS011;8802;52.402;4.920;2022-12-04T04:12:31;38.42;;;27.42;;
17369;SDS011;8802;52.402;4.920;2022-12-04T04:15:06;38.15;;;27.30;;
17369;SDS011;8802;52.402;4.920;2022-12-04T04:17:54;37.17;;;25.23;;
17369;SDS011;8802;52.402;4.920;2022-12-04T04:20:40;34.92;;;24.35;;
17369;SDS011;8802;52.402;4.920;2022-12-04T04:23:28;33.83;;;23.35;;
17369;SDS011;8802;52.402;4.920;2022-12-04T04:26:16;29.67;;;21.95;;
17369;SDS011;8802;52.402;4.920;2022-12-04T04:28:44;32.53;;;23.60;;
17369;SDS011;8802;52.402;4.920;2022-12-04T04:31:15;36.22;;;25.80;;
17369;SDS011;8802;52.402;4.920;2022-12-04T04:33:50;35.95;;;24.65;;
17369;SDS011;8802;52.402;4.920;2022-12-04T04:36:27;38.75;;;27.15;;
17369;SDS011;8802;52.402;4.920;2022-12-04T04:39:01;35.58;;;26.63;;
17369;SDS011;8802;52.402;4.920;2022-12-04T04:41:34;40.35;;;29.38;;
17369;SDS011;8802;52.402;4.920;2022-12-04T04:44:11;40.13;;;27.73;;
17369;SDS011;8802;52.402;4.920;2022-12-04T04:46:47;36.05;;;26.23;;
17369;SDS011;8802;52.402;4.920;2022-12-04T04:49:21;35.45;;;27.35;;
17369;SDS011;8802;52.402;4.920;2022-12-04T04:51:51;38.25;;;27.67;;
17369;SDS011;8802;52.402;4.920;2022-12-04T04:54:19;37.05;;;26.90;;
17369;SDS011;8802;52.402;4.920;2022-12-04T04:56:47;38.00;;;25.23;;
17369;SDS011;8802;52.402;4.920;2022-12-04T04:59:14;36.55;;;26.80;;
17369;SDS011;8802;52.402;4.920;2022-12-04T05:01:41;38.88;;;28.85;;
17369;SDS011;8802;52.402;4.920;2022-12-04T05:04:12;38.70;;;28.85;;
17369;SDS011;8802;52.402;4.920;2022-12-04T05:06:39;37.42;;;26.95;;
17369;SDS011;8802;52.402;4.920;2022-12-04T05:09:06;37.90;;;29.30;;
17369;SDS011;8802;52.402;4.920;2022-12-04T05:11:33;41.65;;;30.92;;
17369;SDS011;8802;52.402;4.920;2022-12-04T05:14:00;39.97;;;28.75;;
17369;SDS011;8802;52.402;4.920;2022-12-04T05:16:26;35.40;;;26.85;;
17369;SDS011;8802;52.402;4.920;2022-12-04T05:18:53;36.85;;;26.17;;
17369;SDS011;8802;52.402;4.920;2022-12-04T05:21:39;38.58;;;25.98;;
17369;SDS011;8802;52.402;4.920;2022-12-04T05:24:06;42.58;;;29.75;;
17369;SDS011;8802;52.402;4.920;2022-12-04T05:26:33;39.17;;;26.83;;
17369;SDS011;8802;52.402;4.920;2022-12-04T05:29:00;41.15;;;30.25;;
17369;SDS011;8802;52.402;4.920;2022-12-04T05:31:27;39.55;;;29.48;;
17369;SDS011;8802;52.402;4.920;2022-12-04T05:33:55;36.45;;;26.60;;
17369;SDS011;8802;52.402;4.920;2022-12-04T05:36:21;37.40;;;25.73;;
17369;SDS011;8802;52.402;4.920;2022-12-04T05:38:49;38.15;;;28.63;;
17369;SDS011;8802;52.402;4.920;2022-12-04T05:41:16;36.60;;;26.23;;
17369;SDS011;8802;52.402;4.920;2022-12-04T05:43:43;41.05;;;29.40;;
17369;SDS011;8802;52.402;4.920;2022-12-04T05:46:10;38.20;;;27.90;;
17369;SDS011;8802;52.402;4.920;2022-12-04T05:48:37;41.28;;;30.92;;
17369;SDS011;8802;52.402;4.920;2022-12-04T05:51:04;41.92;;;30.90;;
17369;SDS011;8802;52.402;4.920;2022-12-04T05:53:31;39.92;;;30.40;;
17369;SDS011;8802;52.402;4.920;2022-12-04T05:56:00;37.55;;;26.33;;
17369;SDS011;8802;52.402;4.920;2022-12-04T05:58:28;42.30;;;30.10;;
17369;SDS011;8802;52.402;4.920;2022-12-04T06:00:55;42.53;;;30.67;;
17369;SDS011;8802;52.402;4.920;2022-12-04T06:03:22;35.90;;;26.23;;
17369;SDS011;8802;52.402;4.920;2022-12-04T06:05:48;36.10;;;26.50;;
17369;SDS011;8802;52.402;4.920;2022-12-04T06:08:15;37.85;;;26.48;;
17369;SDS011;8802;52.402;4.920;2022-12-04T06:10:42;42.30;;;31.02;;
17369;SDS011;8802;52.402;4.920;2022-12-04T06:13:10;44.17;;;31.10;;
17369;SDS011;8802;52.402;4.920;2022-12-04T06:15:37;43.17;;;31.50;;
17369;SDS011;8802;52.402;4.920;2022-12-04T06:18:05;40.35;;;27.63;;
17369;SDS011;8802;52.402;4.920;2022-12-04T06:20:32;40.72;;;30.58;;
17369;SDS011;8802;52.402;4.920;2022-12-04T06:22:59;41.72;;;31.00;;
17369;SDS011;8802;52.402;4.920;2022-12-04T06:25:26;41.72;;;31.27;;
17369;SDS011;8802;52.402;4.920;2022-12-04T06:27:53;40.25;;;29.88;;
17369;SDS011;8802;52.402;4.920;2022-12-04T06:30:21;40.60;;;28.15;;
17369;SDS011;8802;52.402;4.920;2022-12-04T06:32:48;42.40;;;31.10;;
17369;SDS011;8802;52.402;4.920;2022-12-04T06:35:15;43.33;;;31.10;;
17369;SDS011;8802;52.402;4.920;2022-12-04T06:37:42;35.33;;;24.95;;
17369;SDS011;8802;52.402;4.920;2022-12-04T06:40:09;37.47;;;23.63;;
17369;SDS011;8802;52.402;4.920;2022-12-04T06:42:36;43.10;;;31.27;;
17369;SDS011;8802;52.402;4.920;2022-12-04T06:45:03;43.67;;;30.13;;
17369;SDS011;8802;52.402;4.920;2022-12-04T06:47:34;41.42;;;25.73;;
17369;SDS011;8802;52.402;4.920;2022-12-04T06:50:01;37.10;;;25.08;;
17369;SDS011;8802;52.402;4.920;2022-12-04T06:52:28;38.40;;;26.20;;
17369;SDS011;8802;52.402;4.920;2022-12-04T06:54:57;37.92;;;25.88;;
17369;SDS011;8802;52.402;4.920;2022-12-04T06:57:24;43.47;;;31.63;;
17369;SDS011;8802;52.402;4.920;2022-12-04T06:59:51;36.80;;;25.52;;
17369;SDS011;8802;52.402;4.920;2022-12-04T07:02:18;42.88;;;29.70;;
17369;SDS011;8802;52.402;4.920;2022-12-04T07:04:46;40.33;;;28.98;;
17369;SDS011;8802;52.402;4.920;2022-12-04T07:07:13;34.83;;;26.08;;
17369;SDS011;8802;52.402;4.920;2022-12-04T07:09:39;42.47;;;30.40;;
17369;SDS011;8802;52.402;4.920;2022-12-04T07:12:06;37.00;;;27.08;;
17369;SDS011;8802;52.402;4.920;2022-12-04T07:14:33;34.67;;;24.65;;
17369;SDS011;8802;52.402;4.920;2022-12-04T07:17:00;42.25;;;30.60;;
17369;SDS011;8802;52.402;4.920;2022-12-04T07:19:27;36.47;;;25.85;;
17369;SDS011;8802;52.402;4.920;2022-12-04T07:21:55;36.40;;;27.85;;
17369;SDS011;8802;52.402;4.920;2022-12-04T07:24:22;37.33;;;27.98;;
17369;SDS011;8802;52.402;4.920;2022-12-04T07:26:48;44.42;;;30.50;;
17369;SDS011;8802;52.402;4.920;2022-12-04T07:29:15;35.10;;;24.75;;
17369;SDS011;8802;52.402;4.920;2022-12-04T07:31:42;35.75;;;23.13;;
17369;SDS011;8802;52.402;4.920;2022-12-04T07:34:09;41.83;;;29.02;;
17369;SDS011;8802;52.402;4.920;2022-12-04T07:36:36;35.45;;;25.42;;
17369;SDS011;8802;52.402;4.920;2022-12-04T07:39:05;41.67;;;30.52;;
17369;SDS011;8802;52.402;4.920;2022-12-04T07:41:32;38.75;;;26.00;;
17369;SDS011;8802;52.402;4.920;2022-12-04T07:43:59;39.47;;;28.45;;
17369;SDS011;8802;52.402;4.920;2022-12-04T07:46:26;36.75;;;25.92;;
17369;SDS011;8802;52.402;4.920;2022-12-04T07:48:53;40.28;;;29.10;;
17369;SDS011;8802;52.402;4.920;2022-12-04T07:51:21;39.28;;;27.05;;
17369;SDS011;8802;52.402;4.920;2022-12-04T07:53:49;37.33;;;25.73;;
17369;SDS011;8802;52.402;4.920;2022-12-04T07:56:19;42.08;;;28.80;;
17369;SDS011;8802;52.402;4.920;2022-12-04T07:58:47;39.67;;;28.73;;
17369;SDS011;8802;52.402;4.920;2022-12-04T08:01:14;40.60;;;29.73;;
17369;SDS011;8802;52.402;4.920;2022-12-04T08:03:43;41.55;;;30.70;;
17369;SDS011;8802;52.402;4.920;2022-12-04T08:06:11;42.25;;;30.63;;
17369;SDS011;8802;52.402;4.920;2022-12-04T08:08:38;43.80;;;30.88;;
17369;SDS011;8802;52.402;4.920;2022-12-04T08:11:05;42.80;;;30.45;;
17369;SDS011;8802;52.402;4.920;2022-12-04T08:13:35;37.55;;;26.88;;
17369;SDS011;8802;52.402;4.920;2022-12-04T08:16:02;39.28;;;28.98;;
17369;SDS011;8802;52.402;4.920;2022-12-04T08:18:29;35.97;;;25.17;;
17369;SDS011;8802;52.402;4.920;2022-12-04T08:21:01;35.35;;;24.00;;
17369;SDS011;8802;52.402;4.920;2022-12-04T08:23:29;42.72;;;29.67;;
17369;SDS011;8802;52.402;4.920;2022-12-04T08:25:57;38.28;;;28.38;;
17369;SDS011;8802;52.402;4.920;2022-12-04T08:28:24;38.17;;;26.52;;
17369;SDS011;8802;52.402;4.920;2022-12-04T08:30:53;40.13;;;28.00;;
17369;SDS011;8802;52.402;4.920;2022-12-04T08:33:20;42.20;;;29.80;;
17369;SDS011;8802;52.402;4.920;2022-12-04T08:35:47;38.17;;;26.70;;
17369;SDS011;8802;52.402;4.920;2022-12-04T08:38:14;41.30;;;30.38;;
17369;SDS011;8802;52.402;4.920;2022-12-04T08:40:40;36.58;;;27.38;;
17369;SDS011;8802;52.402;4.920;2022-12-04T08:43:07;39.97;;;27.70;;
17369;SDS011;8802;52.402;4.920;2022-12-04T08:45:34;42.30;;;27.45;;
17369;SDS011;8802;52.402;4.920;2022-12-04T08:48:02;38.13;;;27.05;;
17369;SDS011;8802;52.402;4.920;2022-12-04T08:50:29;39.30;;;28.80;;
17369;SDS011;8802;52.402;4.920;2022-12-04T08:52:56;40.15;;;28.33;;
17369;SDS011;8802;52.402;4.920;2022-12-04T08:55:23;37.78;;;26.63;;
17369;SDS011;8802;52.402;4.920;2022-12-04T08:57:50;42.17;;;29.25;;
17369;SDS011;8802;52.402;4.920;2022-12-04T09:00:17;38.17;;;26.02;;
17369;SDS011;8802;52.402;4.920;2022-12-04T09:02:47;41.47;;;29.17;;
17369;SDS011;8802;52.402;4.920;2022-12-04T09:05:15;36.30;;;25.30;;
17369;SDS011;8802;52.402;4.920;2022-12-04T09:07:42;41.95;;;28.27;;
17369;SDS011;8802;52.402;4.920;2022-12-04T09:10:10;34.97;;;24.33;;
17369;SDS011;8802;52.402;4.920;2022-12-04T09:12:37;33.58;;;24.15;;
17369;SDS011;8802;52.402;4.920;2022-12-04T09:15:05;33.95;;;23.67;;
17369;SDS011;8802;52.402;4.920;2022-12-04T09:17:33;39.85;;;26.65;;
17369;SDS011;8802;52.402;4.920;2022-12-04T09:20:00;39.92;;;27.70;;
17369;SDS011;8802;52.402;4.920;2022-12-04T09:22:29;36.72;;;26.13;;
17369;SDS011;8802;52.402;4.920;2022-12-04T09:24:56;31.77;;;25.85;;
17369;SDS011;8802;52.402;4.920;2022-12-04T09:27:23;32.97;;;23.75;;
17369;SDS011;8802;52.402;4.920;2022-12-04T09:29:49;35.85;;;26.58;;
17369;SDS011;8802;52.402;4.920;2022-12-04T09:32:16;40.50;;;28.65;;
17369;SDS011;8802;52.402;4.920;2022-12-04T09:34:43;37.05;;;25.73;;
17369;SDS011;8802;52.402;4.920;2022-12-04T09:37:12;36.35;;;25.05;;
17369;SDS011;8802;52.402;4.920;2022-12-04T09:39:41;36.35;;;27.38;;
17369;SDS011;8802;52.402;4.920;2022-12-04T09:42:10;39.35;;;27.38;;
17369;SDS011;8802;52.402;4.920;2022-12-04T09:44:51;38.67;;;28.80;;
17369;SDS011;8802;52.402;4.920;2022-12-04T09:47:24;34.83;;;23.38;;
17369;SDS011;8802;52.402;4.920;2022-12-04T09:49:55;31.15;;;23.15;;
17369;SDS011;8802;52.402;4.920;2022-12-04T09:52:28;30.98;;;21.35;;
17369;SDS011;8802;52.402;4.920;2022-12-04T09:55:06;33.35;;;24.42;;
17369;SDS011;8802;52.402;4.920;2022-12-04T09:57:40;32.90;;;21.77;;
17369;SDS011;8802;52.402;4.920;2022-12-04T10:00:10;39.78;;;26.92;;
17369;SDS011;8802;52.402;4.920;2022-12-04T10:02:40;32.47;;;23.25;;
17369;SDS011;8802;52.402;4.920;2022-12-04T10:05:13;35.20;;;25.48;;
17369;SDS011;8802;52.402;4.920;2022-12-04T10:07:44;30.67;;;22.65;;
17369;SDS011;8802;52.402;4.920;2022-12-04T10:10:25;38.00;;;27.98;;
17369;SDS011;8802;52.402;4.920;2022-12-04T10:13:02;33.65;;;23.05;;
17369;SDS011;8802;52.402;4.920;2022-12-04T10:15:39;34.65;;;25.80;;
17369;SDS011;8802;52.402;4.920;2022-12-04T10:18:15;34.03;;;24.92;;
17369;SDS011;8802;52.402;4.920;2022-12-04T10:23:59;30.70;;;23.23;;
17369;SDS011;8802;52.402;4.920;2022-12-04T10:26:44;26.67;;;20.35;;
17369;SDS011;8802;52.402;4.920;2022-12-04T10:29:14;29.45;;;20.52;;
17369;SDS011;8802;52.402;4.920;2022-12-04T10:31:45;28.55;;;20.55;;
17369;SDS011;8802;52.402;4.920;2022-12-04T10:34:14;31.10;;;22.48;;
17369;SDS011;8802;52.402;4.920;2022-12-04T10:36:44;29.92;;;22.17;;
17369;SDS011;8802;52.402;4.920;2022-12-04T10:39:16;30.25;;;21.13;;
17369;SDS011;8802;52.402;4.920;2022-12-04T10:41:50;22.73;;;16.17;;
17369;SDS011;8802;52.402;4.920;2022-12-04T10:44:21;26.60;;;19.98;;
17369;SDS011;8802;52.402;4.920;2022-12-04T10:46:48;27.17;;;20.05;;
17369;SDS011;8802;52.402;4.920;2022-12-04T10:49:18;22.90;;;17.50;;
17369;SDS011;8802;52.402;4.920;2022-12-04T10:51:49;27.70;;;19.58;;
17369;SDS011;8802;52.402;4.920;2022-12-04T10:54:18;23.13;;;16.20;;
17369;SDS011;8802;52.402;4.920;2022-12-04T10:56:52;24.38;;;16.35;;
17369;SDS011;8802;52.402;4.920;2022-12-04T10:59:20;21.80;;;15.55;;
17369;SDS011;8802;52.402;4.920;2022-12-04T11:01:48;22.63;;;17.17;;
17369;SDS011;8802;52.402;4.920;2022-12-04T11:04:21;24.80;;;17.13;;
17369;SDS011;8802;52.402;4.920;2022-12-04T11:06:50;20.05;;;15.07;;
17369;SDS011;8802;52.402;4.920;2022-12-04T11:09:26;18.65;;;14.15;;
17369;SDS011;8802;52.402;4.920;2022-12-04T11:12:03;19.00;;;13.65;;
17369;SDS011;8802;52.402;4.920;2022-12-04T11:14:32;21.67;;;15.30;;
17369;SDS011;8802;52.402;4.920;2022-12-04T11:16:59;25.08;;;18.33;;
17369;SDS011;8802;52.402;4.920;2022-12-04T11:19:28;21.90;;;15.88;;
17369;SDS011;8802;52.402;4.920;2022-12-04T11:21:57;21.80;;;16.58;;
17369;SDS011;8802;52.402;4.920;2022-12-04T11:24:31;25.13;;;17.88;;
17369;SDS011;8802;52.402;4.920;2022-12-04T11:27:00;21.05;;;15.73;;
17369;SDS011;8802;52.402;4.920;2022-12-04T11:29:29;22.45;;;15.50;;
17369;SDS011;8802;52.402;4.920;2022-12-04T11:31:58;24.92;;;17.42;;
17369;SDS011;8802;52.402;4.920;2022-12-04T11:34:27;25.33;;;17.02;;
17369;SDS011;8802;52.402;4.920;2022-12-04T11:36:59;25.80;;;18.52;;
17369;SDS011;8802;52.402;4.920;2022-12-04T11:39:27;22.95;;;15.77;;
17369;SDS011;8802;52.402;4.920;2022-12-04T11:41:58;23.10;;;15.45;;
17369;SDS011;8802;52.402;4.920;2022-12-04T11:44:28;20.10;;;14.55;;
17369;SDS011;8802;52.402;4.920;2022-12-04T11:46:58;22.00;;;16.98;;
17369;SDS011;8802;52.402;4.920;2022-12-04T11:49:27;19.65;;;14.25;;
17369;SDS011;8802;52.402;4.920;2022-12-04T11:51:58;21.90;;;16.23;;
17369;SDS011;8802;52.402;4.920;2022-12-04T11:54:33;20.25;;;15.18;;
17369;SDS011;8802;52.402;4.920;2022-12-04T11:57:08;18.73;;;14.73;;
17369;SDS011;8802;52.402;4.920;2022-12-04T11:59:47;20.00;;;13.95;;
17369;SDS011;8802;52.402;4.920;2022-12-04T12:02:34;18.17;;;12.95;;
17369;SDS011;8802;52.402;4.920;2022-12-04T12:08:09;22.38;;;13.82;;
17369;SDS011;8802;52.402;4.920;2022-12-04T12:10:46;18.85;;;14.10;;
17369;SDS011;8802;52.402;4.920;2022-12-04T12:13:26;18.73;;;13.50;;
17369;SDS011;8802;52.402;4.920;2022-12-04T12:16:03;19.05;;;13.95;;
17369;SDS011;8802;52.402;4.920;2022-12-04T12:18:44;18.60;;;12.63;;
17369;SDS011;8802;52.402;4.920;2022-12-04T12:21:23;13.23;;;10.98;;
17369;SDS011;8802;52.402;4.920;2022-12-04T12:24:00;14.07;;;11.32;;
17369;SDS011;8802;52.402;4.920;2022-12-04T12:26:39;19.85;;;14.68;;
17369;SDS011;8802;52.402;4.920;2022-12-04T12:29:16;15.90;;;12.35;;
17369;SDS011;8802;52.402;4.920;2022-12-04T12:32:06;15.57;;;12.07;;
17369;SDS011;8802;52.402;4.920;2022-12-04T12:34:42;14.13;;;10.95;;
17369;SDS011;8802;52.402;4.920;2022-12-04T12:37:13;17.58;;;13.10;;
17369;SDS011;8802;52.402;4.920;2022-12-04T12:39:47;19.45;;;14.07;;
17369;SDS011;8802;52.402;4.920;2022-12-04T12:42:19;17.27;;;14.18;;
17369;SDS011;8802;52.402;4.920;2022-12-04T12:44:52;17.95;;;12.93;;
17369;SDS011;8802;52.402;4.920;2022-12-04T12:47:26;15.82;;;11.65;;
17369;SDS011;8802;52.402;4.920;2022-12-04T12:49:56;18.63;;;14.45;;
17369;SDS011;8802;52.402;4.920;2022-12-04T12:52:29;20.15;;;15.13;;
17369;SDS011;8802;52.402;4.920;2022-12-04T12:55:02;21.30;;;14.90;;
17369;SDS011;8802;52.402;4.920;2022-12-04T12:57:40;17.58;;;13.73;;
17369;SDS011;8802;52.402;4.920;2022-12-04T13:00:13;18.85;;;13.90;;
17369;SDS011;8802;52.402;4.920;2022-12-04T13:02:44;17.30;;;13.57;;
17369;SDS011;8802;52.402;4.920;2022-12-04T13:05:17;17.90;;;12.45;;
17369;SDS011;8802;52.402;4.920;2022-12-04T13:07:49;16.17;;;12.13;;
17369;SDS011;8802;52.402;4.920;2022-12-04T13:10:24;15.32;;;13.10;;
17369;SDS011;8802;52.402;4.920;2022-12-04T13:12:57;19.83;;;13.23;;
17369;SDS011;8802;52.402;4.920;2022-12-04T13:15:31;16.90;;;13.57;;
17369;SDS011;8802;52.402;4.920;2022-12-04T13:18:04;19.27;;;14.50;;
17369;SDS011;8802;52.402;4.920;2022-12-04T13:20:36;19.73;;;15.23;;
17369;SDS011;8802;52.402;4.920;2022-12-04T13:23:14;17.98;;;13.88;;
17369;SDS011;8802;52.402;4.920;2022-12-04T13:25:56;18.92;;;13.13;;
17369;SDS011;8802;52.402;4.920;2022-12-04T13:28:34;19.02;;;15.02;;
17369;SDS011;8802;52.402;4.920;2022-12-04T13:31:14;18.60;;;14.57;;
17369;SDS011;8802;52.402;4.920;2022-12-04T13:36:56;20.90;;;15.75;;
17369;SDS011;8802;52.402;4.920;2022-12-04T13:39:51;20.77;;;16.05;;
17369;SDS011;8802;52.402;4.920;2022-12-04T13:42:50;21.88;;;17.23;;
17369;SDS011;8802;52.402;4.920;2022-12-04T13:45:23;21.60;;;16.67;;
17369;SDS011;8802;52.402;4.920;2022-12-04T13:47:57;21.83;;;15.55;;
17369;SDS011;8802;52.402;4.920;2022-12-04T13:50:27;23.10;;;18.55;;
17369;SDS011;8802;52.402;4.920;2022-12-04T13:52:56;23.20;;;18.05;;
17369;SDS011;8802;52.402;4.920;2022-12-04T13:55:26;23.65;;;18.90;;
17369;SDS011;8802;52.402;4.920;2022-12-04T13:57:56;28.77;;;20.15;;
17369;SDS011;8802;52.402;4.920;2022-12-04T14:00:26;26.60;;;20.23;;
17369;SDS011;8802;52.402;4.920;2022-12-04T14:02:57;24.48;;;17.67;;
17369;SDS011;8802;52.402;4.920;2022-12-04T14:05:29;30.05;;;22.17;;
17369;SDS011;8802;52.402;4.920;2022-12-04T14:08:00;27.75;;;22.65;;
17369;SDS011;8802;52.402;4.920;2022-12-04T14:10:30;30.42;;;22.83;;
17369;SDS011;8802;52.402;4.920;2022-12-04T14:13:01;29.10;;;21.42;;
17369;SDS011;8802;52.402;4.920;2022-12-04T14:15:30;29.98;;;22.42;;
17369;SDS011;8802;52.402;4.920;2022-12-04T14:18:03;32.25;;;22.67;;
17369;SDS011;8802;52.402;4.920;2022-12-04T14:20:41;32.50;;;23.75;;
17369;SDS011;8802;52.402;4.920;2022-12-04T14:23:09;34.88;;;24.98;;
17369;SDS011;8802;52.402;4.920;2022-12-04T14:25:51;32.45;;;24.58;;
17369;SDS011;8802;52.402;4.920;2022-12-04T14:28:24;38.65;;;26.40;;
17369;SDS011;8802;52.402;4.920;2022-12-04T14:31:05;32.83;;;23.40;;
17369;SDS011;8802;52.402;4.920;2022-12-04T14:33:43;33.92;;;24.85;;
17369;SDS011;8802;52.402;4.920;2022-12-04T14:36:15;33.88;;;24.42;;
17369;SDS011;8802;52.402;4.920;2022-12-04T14:38:45;34.33;;;24.27;;
17369;SDS011;8802;52.402;4.920;2022-12-04T14:41:22;35.85;;;26.10;;
17369;SDS011;8802;52.402;4.920;2022-12-04T14:43:49;33.00;;;24.00;;
17369;SDS011;8802;52.402;4.920;2022-12-04T14:46:17;37.13;;;26.65;;
17369;SDS011;8802;52.402;4.920;2022-12-04T14:48:51;37.03;;;25.90;;
17369;SDS011;8802;52.402;4.920;2022-12-04T14:51:27;34.90;;;26.23;;
17369;SDS011;8802;52.402;4.920;2022-12-04T14:54:00;34.70;;;23.58;;
17369;SDS011;8802;52.402;4.920;2022-12-04T14:56:40;37.47;;;26.23;;
17369;SDS011;8802;52.402;4.920;2022-12-04T14:59:17;32.28;;;23.17;;
17369;SDS011;8802;52.402;4.920;2022-12-04T15:01:45;34.45;;;25.90;;
17369;SDS011;8802;52.402;4.920;2022-12-04T15:04:17;32.47;;;24.45;;
17369;SDS011;8802;52.402;4.920;2022-12-04T15:06:49;35.92;;;27.35;;